createdAt,value
2019-05-09T00:00:44.010Z,46.50
2019-05-09T00:03:15.721Z,46.60
2019-05-09T00:05:46.464Z,46.60
2019-05-09T00:08:18.259Z,46.70
2019-05-09T00:10:49.902Z,46.70
2019-05-09T00:13:23.746Z,46.60
2019-05-09T00:15:55.347Z,46.60
2019-05-09T00:18:26.847Z,46.70
2019-05-09T00:21:04.893Z,46.80
2019-05-09T00:23:36.766Z,46.70
2019-05-09T00:26:07.458Z,46.70
2019-05-09T00:28:43.986Z,46.80
2019-05-09T00:31:29.782Z,46.70
2019-05-09T00:34:04.151Z,46.70
2019-05-09T00:36:35.990Z,46.70
2019-05-09T00:39:08.740Z,46.70
2019-05-09T00:41:40.395Z,46.80
2019-05-09T00:44:19.312Z,46.70
2019-05-09T00:47:06.634Z,46.80
2019-05-09T00:49:38.345Z,46.80
2019-05-09T00:52:10.269Z,46.40
2019-05-09T00:54:43.769Z,46.80
2019-05-09T00:57:34.365Z,46.80
2019-05-09T01:00:14.572Z,46.80
2019-05-09T01:02:45.803Z,46.80
2019-05-09T01:05:17.365Z,46.80
2019-05-09T01:07:49.062Z,46.70
2019-05-09T01:10:20.737Z,46.80
2019-05-09T01:12:54.052Z,46.80
2019-05-09T01:15:25.306Z,46.80
2019-05-09T01:17:56.841Z,46.80
2019-05-09T01:20:28.754Z,46.80
2019-05-09T01:22:59.453Z,46.90
2019-05-09T01:25:33.335Z,46.90
2019-05-09T01:28:04.762Z,46.90
2019-05-09T01:30:35.555Z,46.90
2019-05-09T01:33:35.263Z,46.80
2019-05-09T01:36:07.340Z,47.20
2019-05-09T01:38:39.299Z,46.90
2019-05-09T01:41:24.682Z,46.80
2019-05-09T01:43:44.443Z,46.90
2019-05-09T01:46:16.025Z,46.60
2019-05-09T01:48:47.794Z,47.00
2019-05-09T01:51:18.462Z,46.90
2019-05-09T01:53:53.653Z,47.00
2019-05-09T01:58:55.489Z,46.80
2019-05-09T02:01:27.390Z,46.90
2019-05-09T02:03:59.310Z,46.90
2019-05-09T02:06:32.772Z,47.00
2019-05-09T02:09:06.798Z,47.00
2019-05-09T02:11:42.551Z,46.90
2019-05-09T02:14:14.701Z,46.90
2019-05-09T02:16:53.802Z,47.00
2019-05-09T02:19:33.265Z,46.70
2019-05-09T02:22:08.458Z,47.00
2019-05-09T02:24:40.072Z,47.00
2019-05-09T02:27:13.247Z,47.10
2019-05-09T02:29:45.357Z,47.10
2019-05-09T02:32:17.073Z,47.10
2019-05-09T02:34:48.739Z,47.20
2019-05-09T02:37:19.461Z,47.10
2019-05-09T02:39:51.309Z,47.00
2019-05-09T02:42:23.069Z,47.10
2019-05-09T02:44:54.741Z,47.10
2019-05-09T02:47:28.913Z,47.10
2019-05-09T02:49:59.795Z,47.10
2019-05-09T02:52:31.630Z,47.10
2019-05-09T02:55:03.349Z,47.00
2019-05-09T02:57:37.446Z,46.80
2019-05-09T03:00:29.013Z,47.00
2019-05-09T03:03:08.945Z,47.00
2019-05-09T03:05:39.067Z,47.00
2019-05-09T03:08:11.297Z,47.00
2019-05-09T03:10:43.268Z,47.00
2019-05-09T03:13:14.801Z,47.00
2019-05-09T03:15:49.444Z,47.00
2019-05-09T03:18:21.388Z,47.00
2019-05-09T03:21:03.046Z,46.60
2019-05-09T03:23:34.784Z,47.00
2019-05-09T03:26:08.437Z,47.00
2019-05-09T03:28:49.248Z,46.90
2019-05-09T03:31:21.917Z,47.00
2019-05-09T03:33:53.724Z,47.00
2019-05-09T03:36:24.480Z,47.70
2019-05-09T03:38:57.836Z,47.00
2019-05-09T03:41:29.778Z,46.90
2019-05-09T03:44:00.622Z,47.00
2019-05-09T03:46:48.529Z,47.00
2019-05-09T03:49:20.302Z,46.70
2019-05-09T03:51:51.813Z,47.00
2019-05-09T03:54:23.379Z,47.00
2019-05-09T03:57:03.052Z,47.10
2019-05-09T03:59:35.050Z,47.10
2019-05-09T04:02:09.828Z,47.10
2019-05-09T04:04:40.258Z,47.10
2019-05-09T04:07:12.255Z,47.00
2019-05-09T04:09:43.978Z,47.10
2019-05-09T04:12:17.958Z,47.00
2019-05-09T04:14:49.415Z,47.00
2019-05-09T04:17:20.830Z,47.10
2019-05-09T04:19:52.753Z,47.00
2019-05-09T04:22:23.505Z,47.10
2019-05-09T04:24:57.644Z,47.00
2019-05-09T04:29:29.769Z,47.00
2019-05-09T04:32:00.855Z,47.00
2019-05-09T04:34:32.814Z,47.00
2019-05-09T04:37:04.711Z,47.00
2019-05-09T04:39:35.759Z,47.00
2019-05-09T04:42:08.401Z,47.00
2019-05-09T04:44:49.637Z,47.00
2019-05-09T04:47:19.364Z,46.60
2019-05-09T04:49:51.306Z,47.00
2019-05-09T04:52:22.882Z,46.90
2019-05-09T04:54:57.468Z,46.90
2019-05-09T04:57:29.332Z,46.80
2019-05-09T05:00:01.054Z,46.90
2019-05-09T05:02:44.058Z,46.80
2019-05-09T05:05:17.952Z,46.80
2019-05-09T05:07:49.305Z,46.90
2019-05-09T05:10:20.827Z,46.80
2019-05-09T05:12:52.599Z,46.80
2019-05-09T05:15:24.335Z,46.70
2019-05-09T05:17:58.237Z,46.30
2019-05-09T05:20:31.402Z,46.80
2019-05-09T05:23:19.057Z,46.80
2019-05-09T05:25:50.774Z,46.80
2019-05-09T05:28:21.487Z,46.70
2019-05-09T05:30:53.302Z,46.70
2019-05-09T05:33:40.543Z,46.80
2019-05-09T05:36:12.306Z,47.40
2019-05-09T05:38:44.393Z,46.70
2019-05-09T05:41:18.145Z,46.70
2019-05-09T05:43:49.410Z,46.80
2019-05-09T05:46:51.531Z,46.70
2019-05-09T05:49:23.358Z,46.70
2019-05-09T05:51:57.494Z,46.70
2019-05-09T05:54:28.749Z,46.70
2019-05-09T05:56:59.640Z,46.60
2019-05-09T05:59:31.388Z,46.50
2019-05-09T06:02:03.316Z,46.30
2019-05-09T06:04:35.260Z,46.50
2019-05-09T06:07:08.064Z,46.40
2019-05-09T06:09:39.879Z,46.40
2019-05-09T06:12:11.742Z,47.00
2019-05-09T06:14:42.464Z,46.30
2019-05-09T06:17:14.303Z,46.30
2019-05-09T06:19:48.224Z,46.30
2019-05-09T06:22:20.585Z,46.30
2019-05-09T06:24:52.422Z,46.30
2019-05-09T06:27:24.289Z,46.50
2019-05-09T06:29:58.082Z,46.40
2019-05-09T06:32:29.392Z,46.50
2019-05-09T06:35:01.063Z,46.00
2019-05-09T06:37:32.774Z,46.40
2019-05-09T06:40:03.514Z,46.40
2019-05-09T06:42:37.839Z,46.40
2019-05-09T06:45:31.775Z,46.30
2019-05-09T06:48:03.649Z,46.40
2019-05-09T06:50:37.298Z,46.20
2019-05-09T06:53:08.741Z,45.80
2019-05-09T06:55:39.490Z,46.80
2019-05-09T06:58:29.310Z,46.00
2019-05-09T07:01:18.266Z,46.20
2019-05-09T07:03:52.446Z,46.10
2019-05-09T07:06:29.651Z,46.70
2019-05-09T07:14:33.042Z,44.80
2019-05-09T07:17:03.320Z,45.40
2019-05-09T07:19:35.065Z,45.50
2019-05-09T07:22:23.430Z,45.40
2019-05-09T07:25:18.652Z,45.40
2019-05-09T07:27:50.354Z,45.30
2019-05-09T07:30:40.906Z,45.30
2019-05-09T07:33:38.398Z,45.20
2019-05-09T07:36:10.301Z,45.10
2019-05-09T07:38:41.821Z,45.10
2019-05-09T07:41:13.649Z,45.10
2019-05-09T07:43:47.628Z,45.00
2019-05-09T07:46:28.430Z,44.60
2019-05-09T07:49:03.758Z,45.60
2019-05-09T07:51:34.482Z,45.00
2019-05-09T07:54:21.232Z,44.80
2019-05-09T07:56:39.775Z,44.80
2019-05-09T07:59:10.452Z,44.80
2019-05-09T08:01:42.423Z,44.80
2019-05-09T08:04:14.026Z,44.70
2019-05-09T08:06:48.430Z,44.70
2019-05-09T08:09:19.331Z,44.60
2019-05-09T08:11:51.029Z,44.20
2019-05-09T08:14:22.786Z,44.50
2019-05-09T08:19:38.992Z,44.40
2019-05-09T08:22:10.798Z,44.40
2019-05-09T08:24:42.409Z,44.30
2019-05-09T08:27:14.058Z,44.40
2019-05-09T08:29:47.875Z,44.30
2019-05-09T08:32:19.263Z,44.30
2019-05-09T08:34:50.862Z,44.30
2019-05-09T08:37:22.426Z,44.30
2019-05-09T08:39:54.066Z,44.20
2019-05-09T08:42:25.846Z,44.20
2019-05-09T08:44:57.896Z,44.20
2019-05-09T08:47:29.772Z,44.20
2019-05-09T08:50:13.073Z,44.10
2019-05-09T08:52:45.002Z,44.10
2019-05-09T08:55:17.470Z,44.10
2019-05-09T08:57:49.378Z,44.10
2019-05-09T09:00:21.019Z,43.70
2019-05-09T09:02:52.791Z,44.10
2019-05-09T09:05:24.416Z,44.00
2019-05-09T09:07:57.802Z,44.00
2019-05-09T09:10:29.552Z,44.10
2019-05-09T09:13:01.306Z,44.10
2019-05-09T09:15:55.818Z,44.00
2019-05-09T09:18:05.494Z,44.00
2019-05-09T09:20:37.942Z,44.10
2019-05-09T09:23:09.848Z,44.00
2019-05-09T09:25:44.745Z,44.10
2019-05-09T09:28:15.451Z,44.10
2019-05-09T09:30:48.501Z,44.20
2019-05-09T09:33:19.479Z,44.10
2019-05-09T09:35:51.641Z,44.20
2019-05-09T09:38:23.395Z,44.80
2019-05-09T09:43:39.283Z,44.20
2019-05-09T09:46:14.667Z,43.60
2019-05-09T09:48:44.399Z,44.30
2019-05-09T09:51:18.331Z,43.80
2019-05-09T09:53:49.494Z,44.10
2019-05-09T09:56:22.605Z,44.20
2019-05-09T09:59:08.365Z,44.20
2019-05-09T10:01:42.318Z,44.20
2019-05-09T10:04:23.743Z,44.20
2019-05-09T10:06:53.147Z,44.20
2019-05-09T10:09:24.775Z,44.10
2019-05-09T10:12:00.039Z,44.00
2019-05-09T10:14:33.390Z,44.00
2019-05-09T10:17:33.312Z,44.10
2019-05-09T10:20:22.271Z,44.10
2019-05-09T10:23:00.272Z,44.10
2019-05-09T10:25:27.670Z,44.00
2019-05-09T10:27:59.373Z,43.60
2019-05-09T10:30:38.167Z,44.00
2019-05-09T10:33:09.429Z,44.10
2019-05-09T10:35:41.315Z,44.60
2019-05-09T10:38:13.321Z,44.10
2019-05-09T10:40:48.268Z,44.20
2019-05-09T10:43:39.015Z,44.10
2019-05-09T10:46:46.274Z,44.10
2019-05-09T10:49:03.634Z,44.20
2019-05-09T10:51:34.531Z,44.20
2019-05-09T10:54:08.113Z,43.80
2019-05-09T10:56:39.800Z,44.40
2019-05-09T10:59:10.487Z,44.30
2019-05-09T11:01:42.305Z,44.20
2019-05-09T11:04:14.580Z,44.20
2019-05-09T11:06:45.270Z,44.30
2019-05-09T11:09:18.277Z,45.00
2019-05-09T11:11:49.292Z,44.30
2019-05-09T11:14:32.101Z,45.00
2019-05-09T11:17:07.714Z,44.30
2019-05-09T11:19:28.868Z,44.30
2019-05-09T11:22:00.781Z,44.30
2019-05-09T11:24:42.914Z,44.30
2019-05-09T11:27:08.283Z,44.20
2019-05-09T11:29:39.303Z,44.30
2019-05-09T11:32:10.875Z,44.20
2019-05-09T11:34:42.421Z,44.20
2019-05-09T11:37:14.032Z,44.20
2019-05-09T11:39:48.198Z,43.90
2019-05-09T11:42:19.751Z,44.20
2019-05-09T11:44:50.534Z,44.10
2019-05-09T11:47:32.382Z,44.20
2019-05-09T11:49:57.811Z,44.10
2019-05-09T11:52:29.329Z,44.10
2019-05-09T11:55:01.301Z,43.70
2019-05-09T11:57:32.858Z,44.00
2019-05-09T12:00:05.046Z,44.90
2019-05-09T12:02:38.585Z,44.10
2019-05-09T12:05:09.456Z,44.10
2019-05-09T12:07:41.378Z,44.00
2019-05-09T12:10:13.068Z,44.10
2019-05-09T12:12:47.703Z,44.10
2019-05-09T12:15:18.773Z,44.10
2019-05-09T12:17:57.912Z,44.20
2019-05-09T12:20:24.062Z,44.00
2019-05-09T12:22:58.193Z,44.20
2019-05-09T12:25:29.364Z,44.10
2019-05-09T12:28:01.014Z,43.70
2019-05-09T12:30:32.843Z,44.20
2019-05-09T12:33:04.377Z,44.10
2019-05-09T12:35:38.493Z,44.10
2019-05-09T12:38:09.577Z,44.10
2019-05-09T12:40:41.730Z,44.10
2019-05-09T12:43:12.443Z,44.80
2019-05-09T12:45:44.055Z,44.10
2019-05-09T12:48:18.629Z,44.20
2019-05-09T12:50:49.297Z,44.10
2019-05-09T12:53:21.289Z,44.70
2019-05-09T12:56:00.744Z,44.20
2019-05-09T12:58:32.746Z,44.10
2019-05-09T13:01:03.555Z,44.10
2019-05-09T13:03:38.014Z,44.10
2019-05-09T13:06:08.735Z,44.70
2019-05-09T13:08:39.472Z,44.20
2019-05-09T13:11:11.294Z,44.80
2019-05-09T13:13:43.307Z,44.10
2019-05-09T13:16:47.466Z,44.10
2019-05-09T13:19:12.304Z,44.20
2019-05-09T13:21:43.817Z,44.10
2019-05-09T13:24:19.264Z,44.10
2019-05-09T13:26:51.442Z,44.10
2019-05-09T13:29:23.266Z,44.20
2019-05-09T13:31:57.666Z,44.20
2019-05-09T13:34:29.274Z,44.20
2019-05-09T13:37:00.801Z,44.10
2019-05-09T13:39:32.591Z,44.50
2019-05-09T13:42:04.301Z,44.10
2019-05-09T13:44:41.153Z,43.80
2019-05-09T13:47:11.000Z,44.20
2019-05-09T13:49:42.753Z,43.70
2019-05-09T13:52:13.472Z,44.10
2019-05-09T13:54:45.359Z,44.10
2019-05-09T13:57:18.799Z,44.10
2019-05-09T13:59:50.794Z,44.20
2019-05-09T14:02:22.615Z,44.20
2019-05-09T14:04:54.390Z,44.30
2019-05-09T14:07:27.933Z,43.80
2019-05-09T14:09:59.731Z,44.00
2019-05-09T14:12:30.521Z,44.00
2019-05-09T14:15:02.298Z,44.00
2019-05-09T14:17:46.032Z,44.00
2019-05-09T14:20:08.897Z,44.00
2019-05-09T14:22:40.977Z,44.10
2019-05-09T14:25:12.759Z,44.00
2019-05-09T14:27:48.740Z,44.10
2019-05-09T14:30:19.597Z,44.10
2019-05-09T14:32:50.729Z,44.30
2019-05-09T14:35:21.507Z,44.40
2019-05-09T14:37:53.754Z,44.10
2019-05-09T14:40:25.451Z,43.00
2019-05-09T14:42:57.863Z,43.10
2019-05-09T14:45:29.798Z,42.70
2019-05-09T14:48:01.346Z,42.60
2019-05-09T14:50:33.298Z,42.60
2019-05-09T14:53:04.804Z,42.50
2019-05-09T14:55:39.165Z,42.40
2019-05-09T14:58:10.299Z,42.30
2019-05-09T15:00:41.852Z,42.30
2019-05-09T15:03:13.755Z,42.10
2019-05-09T15:05:45.399Z,42.10
2019-05-09T15:08:18.088Z,42.10
2019-05-09T15:10:49.829Z,42.30
2019-05-09T15:13:21.737Z,42.40
2019-05-09T15:15:52.764Z,42.40
2019-05-09T15:18:24.738Z,42.30
2019-05-09T15:20:57.999Z,42.50
2019-05-09T15:23:29.389Z,42.50
2019-05-09T15:26:01.062Z,42.50
2019-05-09T15:28:32.780Z,42.60
2019-05-09T15:31:04.473Z,42.60
2019-05-09T15:33:37.504Z,42.60
2019-05-09T15:36:09.122Z,42.30
2019-05-09T15:38:40.841Z,42.20
2019-05-09T15:41:12.573Z,42.70
2019-05-09T15:43:44.381Z,42.80
2019-05-09T15:46:24.746Z,42.60
2019-05-09T15:48:55.489Z,42.80
2019-05-09T15:51:27.930Z,42.90
2019-05-09T15:54:00.049Z,43.00
2019-05-09T15:56:31.770Z,42.90
2019-05-09T15:59:03.375Z,42.90
2019-05-09T16:01:35.059Z,43.10
2019-05-09T16:04:08.610Z,43.10
2019-05-09T16:06:40.438Z,43.10
2019-05-09T16:09:12.247Z,43.30
2019-05-09T16:11:44.365Z,43.40
2019-05-09T16:14:18.447Z,43.30
2019-05-09T16:16:49.875Z,43.40
2019-05-09T16:19:21.733Z,43.40
2019-05-09T16:21:52.480Z,43.50
2019-05-09T16:24:24.447Z,43.50
2019-05-09T16:26:57.839Z,44.10
2019-05-09T16:29:32.330Z,43.50
2019-05-09T16:32:03.301Z,43.50
2019-05-09T16:34:35.050Z,43.20
2019-05-09T16:37:07.626Z,43.20
2019-05-09T16:39:39.745Z,43.20
2019-05-09T16:42:10.435Z,43.10
2019-05-09T16:44:42.320Z,43.10
2019-05-09T16:47:14.306Z,43.10
2019-05-09T16:49:47.751Z,43.10
2019-05-09T16:52:19.474Z,43.10
2019-05-09T16:54:53.428Z,42.70
2019-05-09T16:57:27.489Z,43.20
2019-05-09T16:59:58.743Z,43.20
2019-05-09T17:02:29.398Z,43.20
2019-05-09T17:05:01.747Z,43.30
2019-05-09T17:07:32.467Z,43.30
2019-05-09T17:10:04.162Z,43.30
2019-05-09T17:12:37.316Z,43.40
2019-05-09T17:15:09.391Z,43.40
2019-05-09T17:17:41.326Z,43.40
2019-05-09T17:20:14.959Z,43.50
2019-05-09T17:23:11.696Z,44.10
2019-05-09T17:25:39.373Z,43.10
2019-05-09T17:28:11.305Z,43.20
2019-05-09T17:30:42.815Z,43.80
2019-05-09T17:33:14.690Z,43.70
2019-05-09T17:35:45.467Z,43.80
2019-05-09T17:38:18.048Z,43.40
2019-05-09T17:40:50.290Z,43.90
2019-05-09T17:43:22.073Z,43.80
2019-05-09T17:45:53.784Z,43.80
2019-05-09T17:48:24.678Z,43.80
2019-05-09T17:50:57.874Z,43.80
2019-05-09T17:55:18.178Z,43.40
2019-05-09T17:57:50.368Z,43.50
2019-05-09T18:00:23.747Z,43.90
2019-05-09T18:02:54.644Z,43.90
2019-05-09T18:05:26.393Z,44.00
2019-05-09T18:07:58.070Z,43.60
2019-05-09T18:10:29.839Z,44.10
2019-05-09T18:13:01.412Z,44.20
2019-05-09T18:15:33.313Z,44.30
2019-05-09T18:18:04.870Z,44.20
2019-05-09T18:20:37.978Z,44.00
2019-05-09T18:23:09.734Z,43.90
2019-05-09T18:25:40.922Z,43.60
2019-05-09T18:28:12.786Z,43.30
2019-05-09T18:30:43.462Z,43.10
2019-05-09T18:33:21.445Z,42.90
2019-05-09T18:35:53.303Z,42.80
2019-05-09T18:38:34.283Z,42.70
2019-05-09T18:41:09.535Z,42.70
2019-05-09T18:43:39.729Z,42.70
2019-05-09T18:46:10.482Z,42.60
2019-05-09T18:48:42.305Z,42.60
2019-05-09T18:51:13.898Z,42.70
2019-05-09T18:53:45.748Z,42.70
2019-05-09T18:56:16.440Z,42.70
2019-05-09T18:58:48.311Z,42.80
2019-05-09T19:01:20.375Z,42.80
2019-05-09T19:06:33.870Z,42.90
2019-05-09T19:09:06.328Z,43.00
2019-05-09T19:11:38.704Z,43.10
2019-05-09T19:14:12.431Z,43.00
2019-05-09T19:16:53.819Z,43.20
2019-05-09T19:19:32.627Z,43.20
2019-05-09T19:22:21.055Z,43.30
2019-05-09T19:24:38.748Z,43.00
2019-05-09T19:27:09.489Z,43.50
2019-05-09T19:29:41.311Z,43.60
2019-05-09T19:32:12.785Z,43.80
2019-05-09T19:34:44.515Z,43.90
2019-05-09T19:37:16.306Z,44.10
2019-05-09T19:39:47.860Z,44.40
2019-05-09T19:42:19.690Z,44.50
2019-05-09T19:44:51.417Z,44.70
2019-05-09T19:47:23.303Z,43.80
2019-05-09T19:49:55.059Z,44.10
2019-05-09T19:52:37.880Z,44.10
2019-05-09T19:55:00.632Z,44.10
2019-05-09T19:57:32.612Z,44.20
2019-05-09T20:08:23.162Z,44.20
2019-05-09T20:11:21.066Z,44.40
2019-05-09T20:14:11.435Z,44.50
2019-05-09T20:16:46.688Z,44.60
2019-05-09T20:19:18.361Z,44.80
2019-05-09T20:21:50.066Z,44.50
2019-05-09T20:24:22.314Z,44.90
2019-05-09T20:26:53.824Z,45.00
2019-05-09T20:29:25.783Z,45.10
2019-05-09T20:31:56.455Z,45.10
2019-05-09T20:34:28.310Z,45.10
2019-05-09T20:36:59.856Z,45.20
2019-05-09T20:41:27.048Z,45.20
2019-05-09T20:43:59.055Z,45.20
2019-05-09T20:46:31.274Z,45.30
2019-05-09T20:49:03.748Z,45.30
2019-05-09T20:51:34.884Z,45.40
2019-05-09T20:54:20.009Z,45.40
2019-05-09T20:56:40.534Z,45.40
2019-05-09T20:59:12.377Z,45.40
2019-05-09T21:01:44.316Z,45.50
2019-05-09T21:04:16.310Z,45.60
2019-05-09T21:06:48.410Z,45.70
2019-05-09T21:09:20.349Z,45.60
2019-05-09T21:11:52.309Z,45.60
2019-05-09T21:14:24.301Z,45.60
2019-05-09T21:16:56.339Z,45.70
2019-05-09T21:19:28.310Z,45.70
2019-05-09T21:22:00.361Z,45.70
2019-05-09T21:24:32.326Z,45.70
2019-05-09T21:27:04.316Z,45.80
2019-05-09T21:29:36.332Z,45.80
2019-05-09T21:32:08.307Z,45.80
2019-05-09T21:34:39.842Z,45.80
2019-05-09T21:37:13.902Z,45.90
2019-05-09T21:39:45.350Z,45.90
2019-05-09T21:42:16.836Z,46.30
2019-05-09T21:44:48.615Z,46.00
2019-05-09T21:47:20.461Z,46.10
2019-05-09T21:49:52.274Z,45.80
2019-05-09T21:52:23.838Z,46.20
2019-05-09T21:54:55.605Z,46.20
2019-05-09T21:57:28.320Z,46.20
2019-05-09T22:01:01.334Z,46.90
2019-05-09T22:03:32.955Z,46.30
2019-05-09T22:06:04.774Z,46.30
2019-05-09T22:08:36.437Z,46.30
2019-05-09T22:11:08.329Z,46.40
2019-05-09T22:13:40.007Z,46.40
2019-05-09T22:16:11.770Z,46.40
2019-05-09T22:18:42.460Z,46.50
2019-05-09T22:21:23.329Z,46.50
2019-05-09T22:23:56.721Z,46.50
2019-05-09T22:26:28.370Z,46.50
2019-05-09T22:29:00.047Z,46.10
2019-05-09T22:31:31.794Z,46.50
2019-05-09T22:34:03.362Z,46.50
2019-05-09T22:36:35.075Z,46.60
2019-05-09T22:39:08.318Z,46.70
2019-05-09T22:41:39.898Z,46.70
2019-05-09T22:44:11.654Z,46.90
2019-05-09T22:46:43.755Z,46.70
2019-05-09T22:49:14.481Z,46.40
2019-05-09T22:51:46.280Z,46.70
2019-05-09T22:54:17.854Z,46.80
2019-05-09T22:56:49.805Z,46.80
2019-05-09T22:59:21.389Z,46.80
2019-05-09T23:01:53.019Z,46.90
2019-05-09T23:04:24.784Z,47.00
2019-05-09T23:06:56.655Z,46.90
2019-05-09T23:09:28.349Z,47.60
2019-05-09T23:12:07.529Z,46.50
2019-05-09T23:14:38.871Z,46.90
2019-05-09T23:17:11.498Z,47.00
2019-05-09T23:19:43.325Z,47.00
2019-05-09T23:22:15.073Z,47.10
2019-05-09T23:24:46.737Z,47.10
2019-05-09T23:27:19.978Z,47.10
2019-05-09T23:29:51.393Z,47.10
2019-05-09T23:32:36.309Z,47.20
2019-05-09T23:35:07.861Z,47.10
2019-05-09T23:37:39.390Z,47.20
2019-05-09T23:40:11.306Z,47.20
2019-05-09T23:42:43.622Z,47.10
2019-05-09T23:45:15.346Z,47.10
2019-05-09T23:47:46.937Z,46.80
2019-05-09T23:50:18.739Z,47.20
2019-05-09T23:52:49.495Z,47.20
2019-05-09T23:55:39.010Z,47.30
2019-05-09T23:58:28.352Z,47.30
